createdAt,value
2022-08-21T00:02:03.047Z,101192.91
2022-08-21T00:04:30.301Z,101186.41
2022-08-21T00:06:58.223Z,101189.28
2022-08-21T00:09:25.814Z,101181.97
2022-08-21T00:11:52.489Z,101182.06
2022-08-21T00:14:44.672Z,101178.63
2022-08-21T00:17:13.290Z,101172.31
2022-08-21T00:19:39.925Z,101181.44
2022-08-21T00:22:06.461Z,101176.50
2022-08-21T00:24:33.161Z,101179.75
2022-08-21T00:26:59.774Z,101178.09
2022-08-21T00:29:26.851Z,101180.56
2022-08-21T00:31:53.538Z,101178.31
2022-08-21T00:34:21.358Z,101178.00
2022-08-21T00:36:47.906Z,101176.78
2022-08-21T00:39:15.069Z,101183.34
2022-08-21T00:41:43.103Z,101179.22
2022-08-21T00:44:12.441Z,101176.66
2022-08-21T00:46:41.641Z,101181.66
2022-08-21T00:49:11.049Z,101182.75
2022-08-21T00:51:43.074Z,101183.97
2022-08-21T00:54:18.265Z,101187.41
2022-08-21T00:56:47.685Z,101185.31
2022-08-21T00:59:19.586Z,101184.50
2022-08-21T01:01:46.462Z,101189.19
2022-08-21T01:04:13.622Z,101190.84
2022-08-21T01:06:40.345Z,101194.66
2022-08-21T01:09:06.946Z,101192.44
2022-08-21T01:11:33.415Z,101186.66
2022-08-21T01:13:59.990Z,101184.13
2022-08-21T01:16:26.950Z,101181.97
2022-08-21T01:18:53.423Z,101190.25
2022-08-21T01:21:28.025Z,101183.97
2022-08-21T01:23:57.740Z,101180.88
2022-08-21T01:26:34.035Z,101181.19
2022-08-21T01:29:23.586Z,101180.41
2022-08-21T01:31:56.897Z,101187.41
2022-08-21T01:34:23.420Z,101189.22
2022-08-21T01:36:50.273Z,101189.69
2022-08-21T01:39:17.852Z,101183.41
2022-08-21T01:41:44.559Z,101181.47
2022-08-21T01:44:11.539Z,101188.41
2022-08-21T01:46:38.209Z,101174.69
2022-08-21T01:49:05.506Z,101179.34
2022-08-21T01:51:32.353Z,101174.41
2022-08-21T01:53:59.485Z,101171.88
2022-08-21T01:56:28.716Z,101168.47
2022-08-21T01:58:56.722Z,101160.09
2022-08-21T02:01:23.396Z,101160.69
2022-08-21T02:03:51.139Z,101165.59
2022-08-21T02:06:19.169Z,101158.72
2022-08-21T02:08:47.151Z,101157.44
2022-08-21T02:11:14.551Z,101156.94
2022-08-21T02:13:41.957Z,101160.50
2022-08-21T02:16:09.072Z,101151.47
2022-08-21T02:18:36.096Z,101149.03
2022-08-21T02:21:04.463Z,101149.31
2022-08-21T02:23:30.987Z,101155.47
2022-08-21T02:25:59.922Z,101147.22
2022-08-21T02:28:28.032Z,101156.63
2022-08-21T02:31:04.154Z,101150.84
2022-08-21T02:33:30.945Z,101148.63
2022-08-21T02:36:22.318Z,101155.34
2022-08-21T02:38:50.390Z,101153.03
2022-08-21T02:41:20.117Z,101140.97
2022-08-21T02:43:46.563Z,101142.28
2022-08-21T02:46:16.902Z,101143.91
2022-08-21T02:48:43.518Z,101136.41
2022-08-21T02:51:13.713Z,101138.13
2022-08-21T02:53:42.162Z,101135.09
2022-08-21T02:56:11.797Z,101137.53
2022-08-21T02:58:43.069Z,101135.41
2022-08-21T03:01:10.601Z,101129.81
2022-08-21T03:03:40.168Z,101137.00
2022-08-21T03:06:07.169Z,101125.44
2022-08-21T03:08:33.603Z,101122.09
2022-08-21T03:11:03.520Z,101129.03
2022-08-21T03:13:30.222Z,101118.34
2022-08-21T03:15:57.853Z,101122.91
2022-08-21T03:18:25.993Z,101121.00
2022-08-21T03:20:52.646Z,101129.03
2022-08-21T03:23:19.605Z,101125.16
2022-08-21T03:25:48.761Z,101124.94
2022-08-21T03:28:18.142Z,101129.09
2022-08-21T03:30:47.347Z,101128.66
2022-08-21T03:33:15.701Z,101129.47
2022-08-21T03:35:48.434Z,101129.09
2022-08-21T03:38:40.256Z,101126.66
2022-08-21T03:41:09.413Z,101123.31
2022-08-21T03:43:36.433Z,101121.41
2022-08-21T03:46:04.542Z,101121.41
2022-08-21T03:48:32.105Z,101121.50
2022-08-21T03:50:58.598Z,101119.28
2022-08-21T03:53:26.854Z,101116.78
2022-08-21T03:55:53.709Z,101119.56
2022-08-21T03:58:26.024Z,101120.41
2022-08-21T04:00:56.981Z,101120.34
2022-08-21T04:03:24.991Z,101126.25
2022-08-21T04:05:52.082Z,101127.56
2022-08-21T04:08:19.746Z,101125.09
2022-08-21T04:10:49.407Z,101130.38
2022-08-21T04:13:17.970Z,101124.31
2022-08-21T04:15:44.639Z,101125.19
2022-08-21T04:18:11.962Z,101130.84
2022-08-21T04:20:39.868Z,101146.97
2022-08-21T04:23:07.120Z,101154.13
2022-08-21T04:25:33.619Z,101150.72
2022-08-21T04:28:00.255Z,101149.09
2022-08-21T04:30:28.047Z,101152.25
2022-08-21T04:32:59.917Z,101150.50
2022-08-21T04:35:29.783Z,101144.22
2022-08-21T04:37:58.833Z,101150.88
2022-08-21T04:40:28.684Z,101157.72
2022-08-21T04:43:17.032Z,101151.41
2022-08-21T04:45:46.547Z,101150.72
2022-08-21T04:48:15.149Z,101151.25
2022-08-21T04:50:56.938Z,101146.88
2022-08-21T04:53:36.074Z,101152.47
2022-08-21T04:56:08.635Z,101148.88
2022-08-21T04:58:37.370Z,101152.06
2022-08-21T05:01:07.492Z,101156.53
2022-08-21T05:03:35.430Z,101162.97
2022-08-21T05:06:06.159Z,101161.00
2022-08-21T05:08:34.913Z,101164.66
2022-08-21T05:11:03.737Z,101173.19
2022-08-21T05:13:31.433Z,101179.34
2022-08-21T05:16:01.111Z,101179.34
2022-08-21T05:18:28.692Z,101177.44
2022-08-21T05:20:56.968Z,101180.19
2022-08-21T05:23:25.765Z,101179.44
2022-08-21T05:25:53.651Z,101181.88
2022-08-21T05:28:20.464Z,101180.69
2022-08-21T05:30:47.032Z,101189.50
2022-08-21T05:33:13.478Z,101186.00
2022-08-21T05:35:40.819Z,101187.34
2022-08-21T05:38:14.869Z,101186.59
2022-08-21T05:40:44.912Z,101186.75
2022-08-21T05:43:11.504Z,101179.53
2022-08-21T05:45:42.656Z,101185.91
2022-08-21T05:48:20.688Z,101188.06
2022-08-21T05:50:49.035Z,101190.28
2022-08-21T05:53:20.238Z,101182.06
2022-08-21T05:55:47.462Z,101180.72
2022-08-21T05:58:18.095Z,101181.56
2022-08-21T06:00:45.710Z,101184.19
2022-08-21T06:03:18.093Z,101181.47
2022-08-21T06:05:44.673Z,101183.91
2022-08-21T06:08:11.874Z,101183.91
2022-08-21T06:10:38.995Z,101186.03
2022-08-21T06:13:06.272Z,101191.53
2022-08-21T06:15:32.809Z,101189.19
2022-08-21T06:17:59.839Z,101189.06
2022-08-21T06:20:27.065Z,101191.13
2022-08-21T06:22:53.677Z,101186.63
2022-08-21T06:25:20.490Z,101185.84
2022-08-21T06:27:47.963Z,101179.66
2022-08-21T06:30:19.003Z,101185.03
2022-08-21T06:32:45.600Z,101184.22
2022-08-21T06:35:12.422Z,101179.28
2022-08-21T06:37:38.882Z,101184.41
2022-08-21T06:40:12.509Z,101177.47
2022-08-21T06:42:42.615Z,101182.00
2022-08-21T06:45:10.150Z,101178.63
2022-08-21T06:47:36.701Z,101172.00
2022-08-21T06:50:05.884Z,101181.09
2022-08-21T06:52:32.551Z,101177.88
2022-08-21T06:54:59.006Z,101187.63
2022-08-21T06:57:27.033Z,101182.47
2022-08-21T06:59:53.600Z,101177.13
2022-08-21T07:02:20.241Z,101182.19
2022-08-21T07:04:46.646Z,101175.41
2022-08-21T07:07:13.105Z,101173.31
2022-08-21T07:09:40.492Z,101168.63
2022-08-21T07:12:07.425Z,101174.16
2022-08-21T07:14:33.948Z,101168.47
2022-08-21T07:17:00.414Z,101165.59
2022-08-21T07:19:27.311Z,101167.56
2022-08-21T07:22:00.212Z,101172.44
2022-08-21T07:24:28.172Z,101168.41
2022-08-21T07:26:57.064Z,101164.00
2022-08-21T07:29:23.564Z,101175.38
2022-08-21T07:31:50.003Z,101171.16
2022-08-21T07:34:20.238Z,101162.06
2022-08-21T07:36:47.481Z,101169.84
2022-08-21T07:39:17.127Z,101165.31
2022-08-21T07:41:43.646Z,101172.91
2022-08-21T07:44:10.187Z,101155.84
2022-08-21T07:46:39.153Z,101154.25
2022-08-21T07:49:05.754Z,101153.41
2022-08-21T07:51:34.429Z,101148.94
2022-08-21T07:54:04.901Z,101156.56
2022-08-21T07:56:33.073Z,101152.84
2022-08-21T07:58:59.974Z,101152.31
2022-08-21T08:01:34.075Z,101146.59
2022-08-21T08:04:00.666Z,101148.53
2022-08-21T08:06:28.071Z,101145.03
2022-08-21T08:08:55.205Z,101147.56
2022-08-21T08:11:21.657Z,101143.88
2022-08-21T08:13:51.567Z,101150.00
2022-08-21T08:16:19.299Z,101148.50
2022-08-21T08:18:46.500Z,101144.19
2022-08-21T08:21:13.794Z,101144.19
2022-08-21T08:23:40.331Z,101146.44
2022-08-21T08:26:06.906Z,101143.72
2022-08-21T08:28:34.408Z,101149.53
2022-08-21T08:31:02.434Z,101144.59
2022-08-21T08:33:29.918Z,101136.19
2022-08-21T08:35:57.409Z,101136.78
2022-08-21T08:38:27.172Z,101138.06
2022-08-21T08:41:13.848Z,101128.19
2022-08-21T08:43:43.250Z,101136.88
2022-08-21T08:46:19.126Z,101126.72
2022-08-21T08:48:56.219Z,101131.34
2022-08-21T08:51:28.287Z,101120.88
2022-08-21T08:54:01.317Z,101131.88
2022-08-21T08:56:34.913Z,101131.28
2022-08-21T08:59:17.026Z,101128.06
2022-08-21T09:01:43.986Z,101124.84
2022-08-21T09:04:13.476Z,101126.03
2022-08-21T09:06:59.657Z,101125.66
2022-08-21T09:09:58.261Z,101124.38
2022-08-21T09:12:46.529Z,101122.75
2022-08-21T09:15:26.478Z,101121.00
2022-08-21T09:18:26.339Z,101105.19
2022-08-21T09:21:12.251Z,101112.69
2022-08-21T09:23:55.628Z,101118.78
2022-08-21T09:26:28.283Z,101122.94
2022-08-21T09:29:00.343Z,101128.81
2022-08-21T09:31:33.500Z,101123.97
2022-08-21T09:34:05.841Z,101116.81
2022-08-21T09:36:45.030Z,101104.78
2022-08-21T09:39:13.618Z,101108.91
2022-08-21T09:41:40.893Z,101106.63
2022-08-21T09:44:09.302Z,101094.00
2022-08-21T09:46:37.220Z,101111.38
2022-08-21T09:49:06.872Z,101101.88
2022-08-21T09:51:53.499Z,101098.91
2022-08-21T09:54:27.332Z,101107.41
2022-08-21T09:57:37.970Z,101101.97
2022-08-21T10:00:25.172Z,101100.47
2022-08-21T10:02:51.916Z,101104.50
2022-08-21T10:05:27.251Z,101103.53
2022-08-21T10:07:53.992Z,101090.16
2022-08-21T10:10:23.350Z,101095.53
2022-08-21T10:13:13.095Z,101088.44
2022-08-21T10:15:59.046Z,101094.41
2022-08-21T10:18:36.374Z,101091.03
2022-08-21T10:21:23.759Z,101097.66
2022-08-21T10:24:08.893Z,101100.44
2022-08-21T10:26:53.959Z,101099.97
2022-08-21T10:29:42.117Z,101091.47
2022-08-21T10:32:25.980Z,101086.22
2022-08-21T10:35:16.897Z,101086.94
2022-08-21T10:38:03.309Z,101089.59
2022-08-21T10:40:37.842Z,101086.63
2022-08-21T10:43:23.496Z,101085.66
2022-08-21T10:46:15.297Z,101078.06
2022-08-21T10:49:00.387Z,101073.59
2022-08-21T10:51:40.993Z,101075.69
2022-08-21T10:54:20.276Z,101079.53
2022-08-21T10:57:00.421Z,101077.78
2022-08-21T10:59:43.428Z,101078.72
2022-08-21T11:02:09.812Z,101082.44
2022-08-21T11:04:58.960Z,101076.03
2022-08-21T11:07:49.330Z,101076.34
2022-08-21T11:10:24.510Z,101077.69
2022-08-21T11:13:08.096Z,101079.31
2022-08-21T11:15:44.778Z,101072.78
2022-08-21T11:18:33.218Z,101068.59
2022-08-21T11:21:19.560Z,101072.66
2022-08-21T11:24:34.111Z,101079.75
2022-08-21T11:27:13.458Z,101081.63
2022-08-21T11:29:42.543Z,101076.94
2022-08-21T11:32:20.686Z,101061.13
2022-08-21T11:35:13.141Z,101067.50
2022-08-21T11:37:51.864Z,101074.47
2022-08-21T11:40:43.254Z,101073.00
2022-08-21T11:43:33.158Z,101059.38
2022-08-21T11:46:20.100Z,101059.47
2022-08-21T11:49:00.607Z,101061.97
2022-08-21T11:51:57.347Z,101066.41
2022-08-21T11:54:35.594Z,101058.19
2022-08-21T11:57:16.528Z,101060.63
2022-08-21T12:00:09.438Z,101064.56
2022-08-21T12:02:44.377Z,101066.22
2022-08-21T12:05:24.348Z,101060.81
2022-08-21T12:08:22.541Z,101063.66
2022-08-21T12:11:02.962Z,101062.16
2022-08-21T12:13:36.650Z,101067.31
2022-08-21T12:16:10.015Z,101063.63
2022-08-21T12:18:38.906Z,101052.91
2022-08-21T12:21:27.319Z,101059.81
2022-08-21T12:24:19.202Z,101061.16
2022-08-21T12:26:50.421Z,101063.66
2022-08-21T12:29:38.175Z,101053.56
2022-08-21T12:32:10.789Z,101053.38
2022-08-21T12:34:41.751Z,101048.78
2022-08-21T12:37:21.470Z,101052.28
2022-08-21T12:39:51.867Z,101054.41
2022-08-21T12:42:38.408Z,101048.66
2022-08-21T12:45:21.645Z,101049.50
2022-08-21T12:48:08.259Z,101051.25
2022-08-21T12:50:37.146Z,101056.56
2022-08-21T12:53:20.333Z,101054.28
2022-08-21T12:55:47.952Z,101041.75
2022-08-21T12:58:21.962Z,101045.09
2022-08-21T13:00:53.790Z,101038.72
2022-08-21T13:03:20.405Z,101038.53
2022-08-21T13:05:47.058Z,101030.78
2022-08-21T13:08:14.812Z,101042.69
2022-08-21T13:10:42.290Z,101042.84
2022-08-21T13:13:25.564Z,101028.13
2022-08-21T13:16:00.483Z,101028.34
2022-08-21T13:18:30.910Z,101025.59
2022-08-21T13:21:11.918Z,101033.91
2022-08-21T13:23:38.596Z,101026.88
2022-08-21T13:26:18.938Z,101028.56
2022-08-21T13:28:48.302Z,101035.81
2022-08-21T13:31:22.965Z,101031.16
2022-08-21T13:33:50.885Z,101031.22
2022-08-21T13:36:25.651Z,101026.44
2022-08-21T13:39:03.339Z,101033.44
2022-08-21T13:41:34.905Z,101025.19
2022-08-21T13:44:20.523Z,101027.91
2022-08-21T13:46:49.209Z,101015.47
2022-08-21T13:49:19.429Z,101020.56
2022-08-21T13:51:47.604Z,101020.19
2022-08-21T13:54:24.046Z,101021.47
2022-08-21T13:56:50.585Z,101021.97
2022-08-21T13:59:36.930Z,101022.63
2022-08-21T14:02:25.970Z,101019.38
2022-08-21T14:05:04.975Z,101018.75
2022-08-21T14:07:36.782Z,101029.13
2022-08-21T14:10:12.521Z,101026.66
2022-08-21T14:12:53.380Z,101019.63
2022-08-21T14:15:26.534Z,101026.72
2022-08-21T14:17:53.373Z,101020.19
2022-08-21T14:20:32.806Z,101016.19
2022-08-21T14:23:00.542Z,101021.66
2022-08-21T14:25:30.264Z,101019.19
2022-08-21T14:28:22.129Z,101014.34
2022-08-21T14:31:00.609Z,101006.16
2022-08-21T14:33:33.324Z,101014.00
2022-08-21T14:36:07.262Z,101015.13
2022-08-21T14:38:37.248Z,101011.66
2022-08-21T14:41:30.388Z,101005.19
2022-08-21T14:44:07.572Z,101014.19
2022-08-21T14:46:43.990Z,101017.97
2022-08-21T14:49:25.201Z,101008.69
2022-08-21T14:51:57.738Z,101016.25
2022-08-21T14:54:31.165Z,101000.72
2022-08-21T14:57:10.721Z,100999.38
2022-08-21T14:59:38.608Z,101003.97
2022-08-21T15:02:06.156Z,101008.22
2022-08-21T15:04:34.499Z,101003.66
2022-08-21T15:07:02.088Z,101011.31
2022-08-21T15:09:29.223Z,101015.16
2022-08-21T15:11:57.890Z,101013.66
2022-08-21T15:14:27.836Z,101008.31
2022-08-21T15:16:54.467Z,101004.44
2022-08-21T15:19:21.027Z,101015.19
2022-08-21T15:21:47.854Z,101014.88
2022-08-21T15:24:14.386Z,101014.63
2022-08-21T15:26:42.006Z,101007.94
2022-08-21T15:29:09.243Z,101007.94
2022-08-21T15:31:37.361Z,101005.59
2022-08-21T15:34:03.941Z,101003.00
2022-08-21T15:36:34.131Z,101000.28
2022-08-21T15:39:00.688Z,101001.09
2022-08-21T15:41:30.376Z,100999.81
2022-08-21T15:43:57.168Z,101000.84
2022-08-21T15:46:23.906Z,100999.06
2022-08-21T15:48:50.454Z,100998.28
2022-08-21T15:51:18.426Z,100988.47
2022-08-21T15:53:45.622Z,100990.94
2022-08-21T15:56:33.061Z,101002.19
2022-08-21T15:59:06.334Z,101003.09
2022-08-21T16:01:44.759Z,100997.22
2022-08-21T16:04:19.365Z,100995.00
2022-08-21T16:06:54.179Z,100997.13
2022-08-21T16:09:32.177Z,101002.94
2022-08-21T16:12:01.118Z,100991.53
2022-08-21T16:14:30.462Z,100997.00
2022-08-21T16:16:57.833Z,100993.56
2022-08-21T16:19:24.924Z,101004.44
2022-08-21T16:21:51.939Z,101000.44
2022-08-21T16:24:18.437Z,100998.88
2022-08-21T16:26:44.888Z,100991.13
2022-08-21T16:29:11.955Z,101000.22
2022-08-21T16:31:38.802Z,101004.59
2022-08-21T16:34:05.330Z,101003.13
2022-08-21T16:36:32.015Z,100999.41
2022-08-21T16:39:00.378Z,101003.66
2022-08-21T16:41:30.927Z,100994.84
2022-08-21T16:43:58.584Z,100990.00
2022-08-21T16:46:34.708Z,100989.44
2022-08-21T16:49:03.010Z,100994.28
2022-08-21T16:51:31.602Z,100993.13
2022-08-21T16:53:59.254Z,100985.56
2022-08-21T16:56:26.881Z,100984.31
2022-08-21T16:58:55.208Z,100984.19
2022-08-21T17:01:26.967Z,100980.03
2022-08-21T17:03:53.925Z,100979.69
2022-08-21T17:06:23.553Z,100988.75
2022-08-21T17:08:57.311Z,100982.44
2022-08-21T17:11:45.679Z,100983.72
2022-08-21T17:14:16.911Z,100981.94
2022-08-21T17:16:46.416Z,100992.88
2022-08-21T17:19:13.818Z,100985.25
2022-08-21T17:21:40.530Z,100996.28
2022-08-21T17:24:07.165Z,100996.78
2022-08-21T17:26:34.490Z,100993.31
2022-08-21T17:29:09.654Z,100999.47
2022-08-21T17:31:38.795Z,100997.34
2022-08-21T17:34:06.188Z,101004.06
2022-08-21T17:36:33.026Z,100999.03
2022-08-21T17:38:59.734Z,100999.56
2022-08-21T17:41:27.166Z,101006.66
2022-08-21T17:43:55.811Z,100998.41
2022-08-21T17:46:27.742Z,101001.09
2022-08-21T17:48:55.914Z,101003.34
2022-08-21T17:51:22.816Z,100999.22
2022-08-21T17:53:49.479Z,101007.56
2022-08-21T17:56:19.305Z,101002.19
2022-08-21T17:58:50.845Z,101014.88
2022-08-21T18:01:18.757Z,101007.47
2022-08-21T18:03:47.112Z,101009.88
2022-08-21T18:06:17.444Z,101014.78
2022-08-21T18:08:45.333Z,101018.78
2022-08-21T18:11:23.123Z,101017.31
2022-08-21T18:13:51.628Z,101016.19
2022-08-21T18:16:19.533Z,101018.88
2022-08-21T18:18:48.245Z,101028.69
2022-08-21T18:21:15.630Z,101025.53
2022-08-21T18:23:43.824Z,101032.56
2022-08-21T18:26:14.431Z,101027.88
2022-08-21T18:28:44.115Z,101029.94
2022-08-21T18:31:12.043Z,101037.94
2022-08-21T18:33:56.978Z,101038.50
2022-08-21T18:36:27.854Z,101035.88
2022-08-21T18:39:08.660Z,101033.78
2022-08-21T18:41:45.240Z,101038.63
2022-08-21T18:44:13.326Z,101043.16
2022-08-21T18:46:40.013Z,101047.97
2022-08-21T18:49:07.319Z,101043.84
2022-08-21T18:51:33.775Z,101053.41
2022-08-21T18:54:00.597Z,101047.63
2022-08-21T18:56:27.863Z,101050.38
2022-08-21T18:58:58.237Z,101052.06
2022-08-21T19:01:25.818Z,101057.34
2022-08-21T19:03:52.660Z,101059.31
2022-08-21T19:06:19.547Z,101061.97
2022-08-21T19:08:45.963Z,101051.56
2022-08-21T19:11:13.094Z,101062.84
2022-08-21T19:13:39.640Z,101069.06
2022-08-21T19:16:06.422Z,101068.81
2022-08-21T19:18:40.250Z,101067.84
2022-08-21T19:21:07.054Z,101075.03
2022-08-21T19:23:35.217Z,101068.06
2022-08-21T19:26:07.478Z,101074.16
2022-08-21T19:28:45.016Z,101079.28
2022-08-21T19:31:24.464Z,101071.53
2022-08-21T19:34:07.383Z,101072.44
2022-08-21T19:36:34.727Z,101080.91
2022-08-21T19:39:07.271Z,101076.22
2022-08-21T19:41:38.614Z,101077.91
2022-08-21T19:44:09.802Z,101075.34
2022-08-21T19:46:38.275Z,101076.06
2022-08-21T19:49:08.454Z,101070.09
2022-08-21T19:51:37.043Z,101077.63
2022-08-21T19:54:04.308Z,101082.72
2022-08-21T19:56:34.120Z,101074.94
2022-08-21T19:59:03.896Z,101080.84
2022-08-21T20:01:32.628Z,101082.38
2022-08-21T20:03:59.254Z,101083.66
2022-08-21T20:06:26.829Z,101088.19
2022-08-21T20:08:57.274Z,101090.47
2022-08-21T20:11:31.403Z,101089.34
2022-08-21T20:14:00.696Z,101088.38
2022-08-21T20:16:29.436Z,101083.69
2022-08-21T20:18:56.684Z,101078.84
2022-08-21T20:21:23.322Z,101083.06
2022-08-21T20:23:49.861Z,101094.56
2022-08-21T20:26:17.396Z,101091.66
2022-08-21T20:28:45.276Z,101087.94
2022-08-21T20:31:11.763Z,101086.19
2022-08-21T20:33:43.084Z,101095.44
2022-08-21T20:36:10.625Z,101085.53
2022-08-21T20:38:37.158Z,101092.38
2022-08-21T20:41:10.029Z,101094.63
2022-08-21T20:43:48.958Z,101099.66
2022-08-21T20:46:22.858Z,101101.72
2022-08-21T20:48:50.024Z,101096.53
2022-08-21T20:51:39.367Z,101100.25
2022-08-21T20:54:24.427Z,101105.13
2022-08-21T20:56:59.725Z,101103.53
2022-08-21T20:59:43.373Z,101110.31
2022-08-21T21:02:29.654Z,101111.34
2022-08-21T21:05:01.998Z,101113.53
2022-08-21T21:07:36.831Z,101113.88
2022-08-21T21:10:08.201Z,101118.09
2022-08-21T21:12:42.459Z,101117.94
2022-08-21T21:18:14.163Z,101116.47
2022-08-21T21:20:51.041Z,101115.13
2022-08-21T21:23:51.050Z,101120.81
2022-08-21T21:26:35.455Z,101121.97
2022-08-21T21:29:11.281Z,101124.53
2022-08-21T21:31:41.404Z,101125.81
2022-08-21T21:34:07.947Z,101125.97
2022-08-21T21:37:03.796Z,101133.06
2022-08-21T21:39:53.869Z,101126.72
2022-08-21T21:43:02.527Z,101130.41
2022-08-21T21:45:47.707Z,101140.25
2022-08-21T21:48:51.149Z,101134.09
2022-08-21T21:54:42.646Z,101132.28
2022-08-21T21:57:17.272Z,101134.44
2022-08-21T21:59:56.919Z,101130.94
2022-08-21T22:02:40.589Z,101132.56
2022-08-21T22:05:33.479Z,101137.91
2022-08-21T22:08:50.695Z,101142.72
2022-08-21T22:11:24.183Z,101135.41
2022-08-21T22:14:10.973Z,101138.78
2022-08-21T22:16:37.713Z,101139.53
2022-08-21T22:19:24.847Z,101135.19
2022-08-21T22:22:02.356Z,101140.84
2022-08-21T22:24:37.527Z,101137.19
2022-08-21T22:27:10.903Z,101134.25
2022-08-21T22:29:50.471Z,101137.09
2022-08-21T22:32:45.610Z,101144.03
2022-08-21T22:35:21.145Z,101141.28
2022-08-21T22:37:59.355Z,101131.59
2022-08-21T22:40:35.009Z,101134.78
2022-08-21T22:43:16.799Z,101141.75
2022-08-21T22:45:58.935Z,101145.03
2022-08-21T22:48:31.345Z,101145.03
2022-08-21T22:51:07.643Z,101144.25
2022-08-21T22:53:39.755Z,101142.34
2022-08-21T22:56:08.004Z,101140.53
2022-08-21T22:59:00.223Z,101148.59
2022-08-21T23:01:27.257Z,101150.84
2022-08-21T23:03:58.969Z,101148.78
2022-08-21T23:06:34.019Z,101151.72
2022-08-21T23:09:02.280Z,101150.72
2022-08-21T23:11:37.985Z,101153.16
2022-08-21T23:14:04.974Z,101144.31
2022-08-21T23:16:58.181Z,101150.59
2022-08-21T23:20:24.475Z,101147.00
2022-08-21T23:23:22.247Z,101146.59
2022-08-21T23:26:25.125Z,101147.13
2022-08-21T23:29:24.677Z,101154.25
2022-08-21T23:32:16.650Z,101149.25
2022-08-21T23:35:01.138Z,101147.75
2022-08-21T23:37:51.610Z,101145.63
2022-08-21T23:40:47.057Z,101149.13
2022-08-21T23:43:37.374Z,101144.75
2022-08-21T23:46:36.273Z,101149.13
2022-08-21T23:49:25.715Z,101145.72
2022-08-21T23:52:04.350Z,101150.22
2022-08-21T23:54:49.863Z,101155.09
2022-08-21T23:57:50.844Z,101163.06
